sensor_id;sensor_type;location;lat;lon;timestamp;pressure;altitude;pressure_sealevel;temperature;humidity
61359;BME280;47228;46.762;23.598;2022-07-04T00:00:18;97351.58;;;22.27;60.68
61359;BME280;47228;46.762;23.598;2022-07-04T00:03:02;97348.83;;;22.24;60.39
61359;BME280;47228;46.762;23.598;2022-07-04T00:05:30;97345.67;;;22.20;60.56
61359;BME280;47228;46.762;23.598;2022-07-04T00:07:58;97343.15;;;22.14;60.58
61359;BME280;47228;46.762;23.598;2022-07-04T00:10:26;97346.38;;;22.10;60.63
61359;BME280;47228;46.762;23.598;2022-07-04T00:12:55;97344.94;;;22.04;60.61
61359;BME280;47228;46.762;23.598;2022-07-04T00:15:24;97346.27;;;21.98;60.73
61359;BME280;47228;46.762;23.598;2022-07-04T00:17:52;97344.95;;;21.91;60.91
61359;BME280;47228;46.762;23.598;2022-07-04T00:20:21;97347.69;;;21.84;61.01
61359;BME280;47228;46.762;23.598;2022-07-04T00:22:49;97347.81;;;21.79;61.15
61359;BME280;47228;46.762;23.598;2022-07-04T00:25:17;97348.10;;;21.75;61.39
61359;BME280;47228;46.762;23.598;2022-07-04T00:27:45;97348.47;;;21.72;61.28
61359;BME280;47228;46.762;23.598;2022-07-04T00:30:14;97348.80;;;21.68;61.35
61359;BME280;47228;46.762;23.598;2022-07-04T00:32:42;97339.03;;;21.66;61.28
61359;BME280;47228;46.762;23.598;2022-07-04T00:35:10;97337.09;;;21.63;61.25
61359;BME280;47228;46.762;23.598;2022-07-04T00:37:38;97333.48;;;21.61;61.33
61359;BME280;47228;46.762;23.598;2022-07-04T00:40:06;97332.67;;;21.59;61.33
61359;BME280;47228;46.762;23.598;2022-07-04T00:42:35;97334.63;;;21.56;61.57
61359;BME280;47228;46.762;23.598;2022-07-04T00:45:03;97334.48;;;21.53;61.60
61359;BME280;47228;46.762;23.598;2022-07-04T00:47:32;97337.79;;;21.49;61.60
61359;BME280;47228;46.762;23.598;2022-07-04T00:50:00;97335.63;;;21.48;61.73
61359;BME280;47228;46.762;23.598;2022-07-04T00:52:29;97336.66;;;21.47;61.65
61359;BME280;47228;46.762;23.598;2022-07-04T00:54:57;97338.60;;;21.47;61.68
61359;BME280;47228;46.762;23.598;2022-07-04T00:57:28;97340.92;;;21.45;61.95
61359;BME280;47228;46.762;23.598;2022-07-04T00:59:56;97342.63;;;21.42;62.33
61359;BME280;47228;46.762;23.598;2022-07-04T01:02:24;97337.39;;;21.38;62.51
61359;BME280;47228;46.762;23.598;2022-07-04T01:04:52;97335.52;;;21.35;62.40
61359;BME280;47228;46.762;23.598;2022-07-04T01:07:21;97336.98;;;21.30;62.75
61359;BME280;47228;46.762;23.598;2022-07-04T01:09:50;97335.64;;;21.27;62.65
61359;BME280;47228;46.762;23.598;2022-07-04T01:12:29;97330.34;;;21.27;62.79
61359;BME280;47228;46.762;23.598;2022-07-04T01:14:58;97330.52;;;21.25;62.40
61359;BME280;47228;46.762;23.598;2022-07-04T01:17:27;97328.84;;;21.23;62.51
61359;BME280;47228;46.762;23.598;2022-07-04T01:19:55;97329.92;;;21.21;62.51
61359;BME280;47228;46.762;23.598;2022-07-04T01:22:23;97325.95;;;21.17;62.55
61359;BME280;47228;46.762;23.598;2022-07-04T01:24:51;97323.98;;;21.14;62.50
61359;BME280;47228;46.762;23.598;2022-07-04T01:27:19;97322.29;;;21.10;62.30
61359;BME280;47228;46.762;23.598;2022-07-04T01:29:47;97319.58;;;21.07;62.44
61359;BME280;47228;46.762;23.598;2022-07-04T01:32:17;97321.42;;;21.05;62.51
61359;BME280;47228;46.762;23.598;2022-07-04T01:34:45;97321.20;;;21.03;62.44
61359;BME280;47228;46.762;23.598;2022-07-04T01:37:14;97316.68;;;21.00;62.61
61359;BME280;47228;46.762;23.598;2022-07-04T01:39:42;97315.34;;;20.97;62.45
61359;BME280;47228;46.762;23.598;2022-07-04T01:42:11;97316.69;;;20.94;62.64
61359;BME280;47228;46.762;23.598;2022-07-04T01:44:40;97314.64;;;20.89;62.79
61359;BME280;47228;46.762;23.598;2022-07-04T01:47:08;97311.32;;;20.83;62.99
61359;BME280;47228;46.762;23.598;2022-07-04T01:49:36;97314.23;;;20.80;63.27
61359;BME280;47228;46.762;23.598;2022-07-04T01:52:04;97313.86;;;20.78;63.24
61359;BME280;47228;46.762;23.598;2022-07-04T01:54:32;97312.95;;;20.75;63.24
61359;BME280;47228;46.762;23.598;2022-07-04T01:57:01;97312.73;;;20.72;63.17
61359;BME280;47228;46.762;23.598;2022-07-04T01:59:29;97314.26;;;20.68;63.28
61359;BME280;47228;46.762;23.598;2022-07-04T02:02:23;97314.67;;;20.63;63.33
61359;BME280;47228;46.762;23.598;2022-07-04T02:04:51;97319.59;;;20.60;63.39
61359;BME280;47228;46.762;23.598;2022-07-04T02:07:20;97320.34;;;20.56;63.59
61359;BME280;47228;46.762;23.598;2022-07-04T02:09:48;97318.99;;;20.53;63.56
61359;BME280;47228;46.762;23.598;2022-07-04T02:12:16;97324.88;;;20.49;63.68
61359;BME280;47228;46.762;23.598;2022-07-04T02:15:04;97325.04;;;20.46;63.73
61359;BME280;47228;46.762;23.598;2022-07-04T02:17:33;97329.17;;;20.42;64.21
61359;BME280;47228;46.762;23.598;2022-07-04T02:20:03;97327.88;;;20.42;64.22
61359;BME280;47228;46.762;23.598;2022-07-04T02:22:32;97329.94;;;20.41;64.38
61359;BME280;47228;46.762;23.598;2022-07-04T02:25:01;97334.73;;;20.38;64.13
61359;BME280;47228;46.762;23.598;2022-07-04T02:27:29;97338.94;;;20.34;64.37
61359;BME280;47228;46.762;23.598;2022-07-04T02:29:57;97340.95;;;20.31;64.56
61359;BME280;47228;46.762;23.598;2022-07-04T02:32:25;97344.37;;;20.29;64.61
61359;BME280;47228;46.762;23.598;2022-07-04T02:34:53;97343.89;;;20.27;64.79
61359;BME280;47228;46.762;23.598;2022-07-04T02:37:21;97342.59;;;20.23;64.69
61359;BME280;47228;46.762;23.598;2022-07-04T02:39:49;97344.36;;;20.19;64.61
61359;BME280;47228;46.762;23.598;2022-07-04T02:42:17;97342.14;;;20.19;64.95
61359;BME280;47228;46.762;23.598;2022-07-04T02:44:45;97344.54;;;20.21;64.96
61359;BME280;47228;46.762;23.598;2022-07-04T02:47:15;97341.67;;;20.23;64.96
61359;BME280;47228;46.762;23.598;2022-07-04T02:49:43;97344.54;;;20.24;64.88
61359;BME280;47228;46.762;23.598;2022-07-04T02:52:12;97344.10;;;20.26;64.69
61359;BME280;47228;46.762;23.598;2022-07-04T02:54:40;97342.65;;;20.29;64.56
61359;BME280;47228;46.762;23.598;2022-07-04T02:57:08;97342.71;;;20.30;64.32
61359;BME280;47228;46.762;23.598;2022-07-04T02:59:37;97344.11;;;20.31;64.36
61359;BME280;47228;46.762;23.598;2022-07-04T03:02:05;97342.88;;;20.34;64.40
61359;BME280;47228;46.762;23.598;2022-07-04T03:04:33;97343.80;;;20.39;64.26
61359;BME280;47228;46.762;23.598;2022-07-04T03:07:01;97347.70;;;20.44;63.94
61359;BME280;47228;46.762;23.598;2022-07-04T03:09:30;97350.88;;;20.47;63.88
61359;BME280;47228;46.762;23.598;2022-07-04T03:11:58;97352.77;;;20.50;63.74
61359;BME280;47228;46.762;23.598;2022-07-04T03:14:26;97351.31;;;20.51;63.57
61359;BME280;47228;46.762;23.598;2022-07-04T03:16:54;97352.67;;;20.53;63.39
61359;BME280;47228;46.762;23.598;2022-07-04T03:19:23;97353.73;;;20.56;63.33
61359;BME280;47228;46.762;23.598;2022-07-04T03:21:51;97353.69;;;20.56;63.23
61359;BME280;47228;46.762;23.598;2022-07-04T03:24:19;97352.56;;;20.57;63.28
61359;BME280;47228;46.762;23.598;2022-07-04T03:26:48;97351.36;;;20.59;63.01
61359;BME280;47228;46.762;23.598;2022-07-04T03:29:16;97345.82;;;20.61;63.19
61359;BME280;47228;46.762;23.598;2022-07-04T03:31:44;97345.81;;;20.64;63.14
61359;BME280;47228;46.762;23.598;2022-07-04T03:34:12;97348.20;;;20.67;63.10
61359;BME280;47228;46.762;23.598;2022-07-04T03:36:40;97347.12;;;20.70;62.78
61359;BME280;47228;46.762;23.598;2022-07-04T03:39:08;97352.41;;;20.71;62.90
61359;BME280;47228;46.762;23.598;2022-07-04T03:41:36;97351.64;;;20.75;63.06
61359;BME280;47228;46.762;23.598;2022-07-04T03:44:04;97351.47;;;20.77;62.92
61359;BME280;47228;46.762;23.598;2022-07-04T03:46:32;97352.34;;;20.79;62.75
61359;BME280;47228;46.762;23.598;2022-07-04T03:49:01;97351.48;;;20.79;62.48
61359;BME280;47228;46.762;23.598;2022-07-04T03:51:29;97349.11;;;20.80;62.34
61359;BME280;47228;46.762;23.598;2022-07-04T03:53:57;97350.30;;;20.82;62.36
61359;BME280;47228;46.762;23.598;2022-07-04T03:56:25;97351.21;;;20.84;62.47
61359;BME280;47228;46.762;23.598;2022-07-04T03:58:54;97351.13;;;20.87;62.44
61359;BME280;47228;46.762;23.598;2022-07-04T04:01:22;97356.43;;;20.89;62.40
61359;BME280;47228;46.762;23.598;2022-07-04T04:03:50;97354.65;;;20.90;62.41
61359;BME280;47228;46.762;23.598;2022-07-04T04:06:36;97351.98;;;20.88;62.31
61359;BME280;47228;46.762;23.598;2022-07-04T04:09:04;97355.55;;;20.88;62.13
61359;BME280;47228;46.762;23.598;2022-07-04T04:11:37;97350.15;;;20.88;62.21
61359;BME280;47228;46.762;23.598;2022-07-04T04:14:05;97349.20;;;20.89;62.13
61359;BME280;47228;46.762;23.598;2022-07-04T04:16:33;97356.69;;;20.91;62.35
61359;BME280;47228;46.762;23.598;2022-07-04T04:19:01;97363.34;;;20.94;62.10
61359;BME280;47228;46.762;23.598;2022-07-04T04:21:30;97371.76;;;20.95;62.14
61359;BME280;47228;46.762;23.598;2022-07-04T04:23:58;97374.35;;;20.95;62.09
61359;BME280;47228;46.762;23.598;2022-07-04T04:26:26;97378.61;;;20.96;62.13
61359;BME280;47228;46.762;23.598;2022-07-04T04:28:54;97384.70;;;20.97;62.23
61359;BME280;47228;46.762;23.598;2022-07-04T04:31:22;97386.97;;;20.99;62.20
61359;BME280;47228;46.762;23.598;2022-07-04T04:33:50;97388.86;;;21.02;62.66
61359;BME280;47228;46.762;23.598;2022-07-04T04:36:18;97391.52;;;21.05;62.86
61359;BME280;47228;46.762;23.598;2022-07-04T04:38:47;97392.64;;;21.10;63.01
61359;BME280;47228;46.762;23.598;2022-07-04T04:41:15;97390.10;;;21.17;62.84
61359;BME280;47228;46.762;23.598;2022-07-04T04:43:44;97397.27;;;21.22;62.40
61359;BME280;47228;46.762;23.598;2022-07-04T04:46:20;97403.64;;;21.28;62.35
61359;BME280;47228;46.762;23.598;2022-07-04T04:48:49;97407.40;;;21.33;61.90
61359;BME280;47228;46.762;23.598;2022-07-04T04:51:17;97407.69;;;21.35;62.11
61359;BME280;47228;46.762;23.598;2022-07-04T04:53:45;97405.89;;;21.39;61.86
61359;BME280;47228;46.762;23.598;2022-07-04T04:56:13;97399.45;;;21.44;61.72
61359;BME280;47228;46.762;23.598;2022-07-04T04:58:42;97393.39;;;21.50;61.43
61359;BME280;47228;46.762;23.598;2022-07-04T05:01:10;97394.13;;;21.58;61.29
61359;BME280;47228;46.762;23.598;2022-07-04T05:03:58;97388.65;;;21.65;61.43
61359;BME280;47228;46.762;23.598;2022-07-04T05:06:26;97388.20;;;21.74;61.12
61359;BME280;47228;46.762;23.598;2022-07-04T05:08:54;97380.08;;;21.82;60.79
61359;BME280;47228;46.762;23.598;2022-07-04T05:11:22;97377.88;;;21.91;60.70
61359;BME280;47228;46.762;23.598;2022-07-04T05:13:50;97376.44;;;21.98;60.56
61359;BME280;47228;46.762;23.598;2022-07-04T05:16:18;97374.63;;;22.07;60.12
61359;BME280;47228;46.762;23.598;2022-07-04T05:18:46;97374.20;;;22.14;60.04
61359;BME280;47228;46.762;23.598;2022-07-04T05:21:14;97370.59;;;22.22;60.31
61359;BME280;47228;46.762;23.598;2022-07-04T05:23:42;97371.58;;;22.31;60.02
61359;BME280;47228;46.762;23.598;2022-07-04T05:26:10;97367.41;;;22.39;60.01
61359;BME280;47228;46.762;23.598;2022-07-04T05:28:39;97363.84;;;22.47;60.07
61359;BME280;47228;46.762;23.598;2022-07-04T05:31:08;97358.27;;;22.56;59.97
61359;BME280;47228;46.762;23.598;2022-07-04T05:33:36;97360.39;;;22.64;59.71
61359;BME280;47228;46.762;23.598;2022-07-04T05:36:04;97358.53;;;22.73;59.59
61359;BME280;47228;46.762;23.598;2022-07-04T05:38:32;97359.93;;;22.82;59.80
61359;BME280;47228;46.762;23.598;2022-07-04T05:41:01;97368.61;;;22.92;59.65
61359;BME280;47228;46.762;23.598;2022-07-04T05:43:29;97374.80;;;23.01;59.64
61359;BME280;47228;46.762;23.598;2022-07-04T05:45:58;97380.96;;;23.11;59.30
61359;BME280;47228;46.762;23.598;2022-07-04T05:48:26;97377.97;;;23.18;58.67
61359;BME280;47228;46.762;23.598;2022-07-04T05:50:54;97382.40;;;23.25;58.07
61359;BME280;47228;46.762;23.598;2022-07-04T05:53:22;97385.18;;;23.30;58.05
61359;BME280;47228;46.762;23.598;2022-07-04T05:55:50;97387.69;;;23.35;57.72
61359;BME280;47228;46.762;23.598;2022-07-04T05:58:18;97387.86;;;23.40;57.75
61359;BME280;47228;46.762;23.598;2022-07-04T06:00:46;97382.58;;;23.43;57.23
61359;BME280;47228;46.762;23.598;2022-07-04T06:03:14;97382.59;;;23.45;57.21
61359;BME280;47228;46.762;23.598;2022-07-04T06:05:47;97380.09;;;23.48;57.01
61359;BME280;47228;46.762;23.598;2022-07-04T06:08:16;97374.27;;;23.50;57.19
61359;BME280;47228;46.762;23.598;2022-07-04T06:10:45;97375.94;;;23.50;56.50
61359;BME280;47228;46.762;23.598;2022-07-04T06:13:13;97371.92;;;23.51;56.78
61359;BME280;47228;46.762;23.598;2022-07-04T06:15:41;97375.98;;;23.51;56.63
61359;BME280;47228;46.762;23.598;2022-07-04T06:18:09;97374.23;;;23.52;56.63
61359;BME280;47228;46.762;23.598;2022-07-04T06:20:38;97371.60;;;23.51;56.61
61359;BME280;47228;46.762;23.598;2022-07-04T06:23:08;97372.89;;;23.52;56.88
61359;BME280;47228;46.762;23.598;2022-07-04T06:25:36;97375.05;;;23.52;57.03
61359;BME280;47228;46.762;23.598;2022-07-04T06:28:04;97378.45;;;23.53;56.67
61359;BME280;47228;46.762;23.598;2022-07-04T06:30:32;97372.67;;;23.56;56.84
61359;BME280;47228;46.762;23.598;2022-07-04T06:33:02;97371.44;;;23.60;56.90
61359;BME280;47228;46.762;23.598;2022-07-04T06:35:31;97367.93;;;23.63;56.30
61359;BME280;47228;46.762;23.598;2022-07-04T06:38:18;97367.69;;;23.67;56.75
61359;BME280;47228;46.762;23.598;2022-07-04T06:40:49;97368.45;;;23.71;56.67
61359;BME280;47228;46.762;23.598;2022-07-04T06:43:18;97366.48;;;23.76;56.36
61359;BME280;47228;46.762;23.598;2022-07-04T06:45:46;97370.17;;;23.81;55.96
61359;BME280;47228;46.762;23.598;2022-07-04T06:48:14;97369.03;;;23.90;55.89
61359;BME280;47228;46.762;23.598;2022-07-04T06:50:45;97365.71;;;23.99;56.18
61359;BME280;47228;46.762;23.598;2022-07-04T06:53:16;97358.64;;;24.10;55.97
61359;BME280;47228;46.762;23.598;2022-07-04T06:55:44;97358.04;;;24.19;55.22
61359;BME280;47228;46.762;23.598;2022-07-04T06:58:12;97356.84;;;24.28;55.37
61359;BME280;47228;46.762;23.598;2022-07-04T07:00:41;97356.77;;;24.36;54.91
61359;BME280;47228;46.762;23.598;2022-07-04T07:03:10;97359.10;;;24.45;54.85
61359;BME280;47228;46.762;23.598;2022-07-04T07:05:38;97357.27;;;24.54;54.85
61359;BME280;47228;46.762;23.598;2022-07-04T07:08:26;97357.10;;;24.66;54.78
61359;BME280;47228;46.762;23.598;2022-07-04T07:10:57;97353.16;;;24.77;54.58
61359;BME280;47228;46.762;23.598;2022-07-04T07:13:47;97353.38;;;24.89;54.50
61359;BME280;47228;46.762;23.598;2022-07-04T07:16:16;97356.06;;;25.01;54.43
61359;BME280;47228;46.762;23.598;2022-07-04T07:18:44;97353.67;;;25.13;54.42
61359;BME280;47228;46.762;23.598;2022-07-04T07:21:13;97351.73;;;25.25;53.75
61359;BME280;47228;46.762;23.598;2022-07-04T07:23:41;97353.89;;;25.37;53.71
61359;BME280;47228;46.762;23.598;2022-07-04T07:26:10;97346.01;;;25.49;53.56
61359;BME280;47228;46.762;23.598;2022-07-04T07:28:39;97343.05;;;25.60;53.33
61359;BME280;47228;46.762;23.598;2022-07-04T07:31:07;97340.60;;;25.71;53.43
61359;BME280;47228;46.762;23.598;2022-07-04T07:33:36;97341.70;;;25.81;53.36
61359;BME280;47228;46.762;23.598;2022-07-04T07:36:04;97337.30;;;25.91;53.00
61359;BME280;47228;46.762;23.598;2022-07-04T07:38:34;97336.27;;;26.01;52.96
61359;BME280;47228;46.762;23.598;2022-07-04T07:41:02;97329.67;;;26.12;52.98
61359;BME280;47228;46.762;23.598;2022-07-04T07:43:30;97326.42;;;26.24;52.94
61359;BME280;47228;46.762;23.598;2022-07-04T07:45:58;97326.02;;;26.35;52.19
61359;BME280;47228;46.762;23.598;2022-07-04T07:48:27;97324.01;;;26.47;52.17
61359;BME280;47228;46.762;23.598;2022-07-04T07:50:55;97323.35;;;26.59;51.59
61359;BME280;47228;46.762;23.598;2022-07-04T07:53:23;97321.92;;;26.70;51.26
61359;BME280;47228;46.762;23.598;2022-07-04T07:55:52;97323.42;;;26.79;51.01
61359;BME280;47228;46.762;23.598;2022-07-04T07:58:20;97323.44;;;26.89;50.79
61359;BME280;47228;46.762;23.598;2022-07-04T08:00:48;97323.36;;;26.99;50.96
61359;BME280;47228;46.762;23.598;2022-07-04T08:03:24;97323.29;;;27.10;50.00
61359;BME280;47228;46.762;23.598;2022-07-04T08:06:11;97323.84;;;27.20;50.33
61359;BME280;47228;46.762;23.598;2022-07-04T08:08:42;97326.74;;;27.30;50.34
61359;BME280;47228;46.762;23.598;2022-07-04T08:11:11;97330.16;;;27.43;50.18
61359;BME280;47228;46.762;23.598;2022-07-04T08:13:40;97331.11;;;27.56;50.24
61359;BME280;47228;46.762;23.598;2022-07-04T08:16:09;97328.61;;;27.68;49.93
61359;BME280;47228;46.762;23.598;2022-07-04T08:18:38;97328.31;;;27.83;49.72
61359;BME280;47228;46.762;23.598;2022-07-04T08:21:06;97331.30;;;27.99;49.75
61359;BME280;47228;46.762;23.598;2022-07-04T08:23:40;97330.44;;;28.14;49.08
61359;BME280;47228;46.762;23.598;2022-07-04T08:26:28;97326.68;;;28.31;48.29
61359;BME280;47228;46.762;23.598;2022-07-04T08:28:57;97328.06;;;28.46;47.98
61359;BME280;47228;46.762;23.598;2022-07-04T08:31:27;97328.57;;;28.61;47.11
61359;BME280;47228;46.762;23.598;2022-07-04T08:34:16;97327.21;;;28.79;46.43
61359;BME280;47228;46.762;23.598;2022-07-04T08:36:44;97324.77;;;28.95;46.29
61359;BME280;47228;46.762;23.598;2022-07-04T08:39:13;97329.88;;;29.13;46.05
61359;BME280;47228;46.762;23.598;2022-07-04T08:41:42;97332.07;;;29.30;45.53
61359;BME280;47228;46.762;23.598;2022-07-04T08:44:11;97329.95;;;29.45;45.06
61359;BME280;47228;46.762;23.598;2022-07-04T08:46:40;97329.61;;;29.54;44.24
61359;BME280;47228;46.762;23.598;2022-07-04T08:49:15;97327.71;;;29.53;43.69
61359;BME280;47228;46.762;23.598;2022-07-04T08:51:53;97327.01;;;29.48;42.95
61359;BME280;47228;46.762;23.598;2022-07-04T08:54:24;97331.31;;;29.44;42.88
61359;BME280;47228;46.762;23.598;2022-07-04T08:57:11;97327.89;;;29.47;42.99
61359;BME280;47228;46.762;23.598;2022-07-04T08:59:58;97328.11;;;29.58;43.16
61359;BME280;47228;46.762;23.598;2022-07-04T09:02:28;97329.02;;;29.71;42.53
61359;BME280;47228;46.762;23.598;2022-07-04T09:04:56;97328.11;;;29.82;43.26
61359;BME280;47228;46.762;23.598;2022-07-04T09:07:27;97328.21;;;29.97;42.79
61359;BME280;47228;46.762;23.598;2022-07-04T09:09:57;97324.65;;;30.15;42.08
61359;BME280;47228;46.762;23.598;2022-07-04T09:12:26;97321.52;;;30.29;41.73
61359;BME280;47228;46.762;23.598;2022-07-04T09:14:54;97317.39;;;30.42;41.33
61359;BME280;47228;46.762;23.598;2022-07-04T09:17:25;97314.40;;;30.55;41.43
61359;BME280;47228;46.762;23.598;2022-07-04T09:20:16;97311.98;;;30.71;41.01
61359;BME280;47228;46.762;23.598;2022-07-04T09:22:45;97308.84;;;30.86;40.52
61359;BME280;47228;46.762;23.598;2022-07-04T09:25:15;97308.65;;;30.97;40.19
61359;BME280;47228;46.762;23.598;2022-07-04T09:27:47;97307.11;;;31.10;40.07
61359;BME280;47228;46.762;23.598;2022-07-04T09:30:18;97305.95;;;31.22;39.41
61359;BME280;47228;46.762;23.598;2022-07-04T09:32:49;97310.49;;;31.34;38.90
61359;BME280;47228;46.762;23.598;2022-07-04T09:35:23;97304.47;;;31.47;38.17
61359;BME280;47228;46.762;23.598;2022-07-04T09:37:54;97298.67;;;31.57;36.52
61359;BME280;47228;46.762;23.598;2022-07-04T09:40:26;97299.13;;;31.67;36.12
61359;BME280;47228;46.762;23.598;2022-07-04T09:42:57;97297.38;;;31.74;35.22
61359;BME280;47228;46.762;23.598;2022-07-04T09:45:26;97298.15;;;31.84;35.46
61359;BME280;47228;46.762;23.598;2022-07-04T09:47:58;97304.09;;;31.98;34.76
61359;BME280;47228;46.762;23.598;2022-07-04T09:50:27;97298.50;;;32.08;33.57
61359;BME280;47228;46.762;23.598;2022-07-04T09:53:02;97295.98;;;32.09;33.74
61359;BME280;47228;46.762;23.598;2022-07-04T09:55:35;97298.57;;;32.00;33.42
61359;BME280;47228;46.762;23.598;2022-07-04T09:58:10;97299.91;;;31.79;33.55
61359;BME280;47228;46.762;23.598;2022-07-04T10:00:40;97294.27;;;31.61;34.06
61359;BME280;47228;46.762;23.598;2022-07-04T10:06:11;97298.55;;;31.31;33.06
61359;BME280;47228;46.762;23.598;2022-07-04T10:08:40;97297.28;;;31.11;33.21
61359;BME280;47228;46.762;23.598;2022-07-04T10:11:10;97298.33;;;30.98;33.49
61359;BME280;47228;46.762;23.598;2022-07-04T10:13:46;97298.95;;;30.88;33.81
61359;BME280;47228;46.762;23.598;2022-07-04T10:16:16;97297.06;;;30.86;34.11
61359;BME280;47228;46.762;23.598;2022-07-04T10:18:44;97297.80;;;30.84;33.15
61359;BME280;47228;46.762;23.598;2022-07-04T10:21:12;97293.66;;;30.85;33.05
61359;BME280;47228;46.762;23.598;2022-07-04T10:23:43;97289.73;;;30.98;34.06
61359;BME280;47228;46.762;23.598;2022-07-04T10:26:12;97286.55;;;31.19;33.93
61359;BME280;47228;46.762;23.598;2022-07-04T10:28:41;97289.88;;;31.36;33.03
61359;BME280;47228;46.762;23.598;2022-07-04T10:31:16;97283.10;;;31.58;32.32
61359;BME280;47228;46.762;23.598;2022-07-04T10:33:46;97280.35;;;31.84;32.42
61359;BME280;47228;46.762;23.598;2022-07-04T10:36:19;97275.89;;;32.08;31.87
61359;BME280;47228;46.762;23.598;2022-07-04T10:38:56;97270.10;;;32.37;32.25
61359;BME280;47228;46.762;23.598;2022-07-04T10:41:26;97265.08;;;32.66;31.64
61359;BME280;47228;46.762;23.598;2022-07-04T10:44:05;97265.86;;;32.94;31.31
61359;BME280;47228;46.762;23.598;2022-07-04T10:46:42;97262.48;;;33.25;30.89
61359;BME280;47228;46.762;23.598;2022-07-04T10:54:30;97258.91;;;33.98;29.40
61359;BME280;47228;46.762;23.598;2022-07-04T11:00:05;97253.39;;;34.37;28.51
61359;BME280;47228;46.762;23.598;2022-07-04T11:02:38;97251.67;;;34.56;28.31
61359;BME280;47228;46.762;23.598;2022-07-04T11:05:11;97246.42;;;34.73;28.33
61359;BME280;47228;46.762;23.598;2022-07-04T11:20:33;97235.20;;;35.29;27.45
61359;BME280;47228;46.762;23.598;2022-07-04T11:25:38;97234.05;;;34.82;27.31
61359;BME280;47228;46.762;23.598;2022-07-04T11:31:10;97222.32;;;34.82;27.78
61359;BME280;47228;46.762;23.598;2022-07-04T11:33:41;97222.94;;;34.86;27.39
61359;BME280;47228;46.762;23.598;2022-07-04T11:36:18;97218.44;;;34.91;27.33
61359;BME280;47228;46.762;23.598;2022-07-04T11:38:57;97215.52;;;35.05;27.48
61359;BME280;47228;46.762;23.598;2022-07-04T11:41:43;97209.90;;;35.19;27.61
61359;BME280;47228;46.762;23.598;2022-07-04T11:44:38;97206.00;;;35.21;27.42
61359;BME280;47228;46.762;23.598;2022-07-04T11:47:40;97204.09;;;35.15;27.06
61359;BME280;47228;46.762;23.598;2022-07-04T11:50:12;97199.46;;;35.12;27.16
61359;BME280;47228;46.762;23.598;2022-07-04T11:52:44;97194.90;;;35.03;26.76
61359;BME280;47228;46.762;23.598;2022-07-04T11:55:32;97185.80;;;34.96;27.21
61359;BME280;47228;46.762;23.598;2022-07-04T11:58:00;97190.25;;;35.08;27.08
61359;BME280;47228;46.762;23.598;2022-07-04T12:00:29;97186.52;;;35.21;26.72
61359;BME280;47228;46.762;23.598;2022-07-04T12:03:02;97183.46;;;35.34;26.66
61359;BME280;47228;46.762;23.598;2022-07-04T12:05:31;97180.06;;;35.45;26.29
61359;BME280;47228;46.762;23.598;2022-07-04T12:07:59;97178.88;;;35.57;26.74
61359;BME280;47228;46.762;23.598;2022-07-04T12:10:48;97174.55;;;35.67;26.50
61359;BME280;47228;46.762;23.598;2022-07-04T12:13:16;97170.38;;;35.75;26.91
61359;BME280;47228;46.762;23.598;2022-07-04T12:15:47;97175.14;;;35.84;26.82
61359;BME280;47228;46.762;23.598;2022-07-04T12:18:23;97175.77;;;35.91;26.87
61359;BME280;47228;46.762;23.598;2022-07-04T12:21:17;97181.54;;;35.85;26.48
61359;BME280;47228;46.762;23.598;2022-07-04T12:23:54;97177.83;;;35.78;26.30
61359;BME280;47228;46.762;23.598;2022-07-04T12:26:46;97180.09;;;35.64;26.55
61359;BME280;47228;46.762;23.598;2022-07-04T12:29:24;97174.35;;;35.54;26.61
61359;BME280;47228;46.762;23.598;2022-07-04T12:31:59;97171.11;;;35.40;26.53
61359;BME280;47228;46.762;23.598;2022-07-04T12:34:27;97165.93;;;35.26;26.37
61359;BME280;47228;46.762;23.598;2022-07-04T12:36:56;97158.99;;;35.10;26.70
61359;BME280;47228;46.762;23.598;2022-07-04T12:39:31;97159.08;;;34.85;26.79
61359;BME280;47228;46.762;23.598;2022-07-04T12:42:18;97159.18;;;34.62;27.15
61359;BME280;47228;46.762;23.598;2022-07-04T12:44:48;97150.77;;;34.49;27.20
61359;BME280;47228;46.762;23.598;2022-07-04T12:47:20;97149.80;;;34.43;27.32
61359;BME280;47228;46.762;23.598;2022-07-04T12:50:07;97143.48;;;34.33;26.80
61359;BME280;47228;46.762;23.598;2022-07-04T12:52:39;97142.08;;;34.25;26.79
61359;BME280;47228;46.762;23.598;2022-07-04T12:55:08;97146.03;;;34.21;27.27
61359;BME280;47228;46.762;23.598;2022-07-04T12:57:39;97145.93;;;34.16;27.67
61359;BME280;47228;46.762;23.598;2022-07-04T13:00:08;97137.70;;;34.13;28.34
61359;BME280;47228;46.762;23.598;2022-07-04T13:02:56;97138.06;;;34.11;29.11
61359;BME280;47228;46.762;23.598;2022-07-04T13:05:27;97138.73;;;34.13;29.84
61359;BME280;47228;46.762;23.598;2022-07-04T13:07:55;97137.98;;;34.15;29.94
61359;BME280;47228;46.762;23.598;2022-07-04T13:10:23;97145.14;;;34.15;30.16
61359;BME280;47228;46.762;23.598;2022-07-04T13:12:51;97143.09;;;34.15;30.12
61359;BME280;47228;46.762;23.598;2022-07-04T13:15:19;97145.41;;;34.09;29.91
61359;BME280;47228;46.762;23.598;2022-07-04T13:17:47;97150.68;;;33.97;29.95
61359;BME280;47228;46.762;23.598;2022-07-04T13:20:15;97151.14;;;33.84;30.11
61359;BME280;47228;46.762;23.598;2022-07-04T13:22:44;97152.34;;;33.73;29.83
61359;BME280;47228;46.762;23.598;2022-07-04T13:25:12;97148.42;;;33.61;29.59
61359;BME280;47228;46.762;23.598;2022-07-04T13:27:40;97148.79;;;33.50;29.75
61359;BME280;47228;46.762;23.598;2022-07-04T13:30:09;97146.54;;;33.44;30.07
61359;BME280;47228;46.762;23.598;2022-07-04T13:32:38;97143.77;;;33.43;30.42
61359;BME280;47228;46.762;23.598;2022-07-04T13:35:07;97138.18;;;33.43;30.39
61359;BME280;47228;46.762;23.598;2022-07-04T13:37:35;97139.13;;;33.43;29.98